sensor_id;sensor_type;location;lat;lon;timestamp;pressure;altitude;pressure_sealevel;temperature;humidity
9521;BME280;4798;41.574;23.734;2023-05-08T00:00:17;95603.47;;;15.72;100.00
9521;BME280;4798;41.574;23.734;2023-05-08T00:02:45;95604.16;;;15.64;100.00
9521;BME280;4798;41.574;23.734;2023-05-08T00:05:14;95594.59;;;15.25;100.00
9521;BME280;4798;41.574;23.734;2023-05-08T00:07:44;95606.41;;;15.57;100.00
9521;BME280;4798;41.574;23.734;2023-05-08T00:10:12;95597.84;;;15.73;100.00
9521;BME280;4798;41.574;23.734;2023-05-08T00:12:41;95595.38;;;15.77;100.00
9521;BME280;4798;41.574;23.734;2023-05-08T00:15:10;95600.53;;;15.87;100.00
9521;BME280;4798;41.574;23.734;2023-05-08T00:17:38;95597.06;;;15.86;100.00
9521;BME280;4798;41.574;23.734;2023-05-08T00:20:07;95590.44;;;15.70;100.00
9521;BME280;4798;41.574;23.734;2023-05-08T00:22:36;95590.06;;;15.26;100.00
9521;BME280;4798;41.574;23.734;2023-05-08T00:25:06;95596.22;;;15.45;100.00
9521;BME280;4798;41.574;23.734;2023-05-08T00:27:35;95596.91;;;15.51;100.00
9521;BME280;4798;41.574;23.734;2023-05-08T00:30:04;95599.53;;;15.69;100.00
9521;BME280;4798;41.574;23.734;2023-05-08T00:32:32;95598.81;;;15.64;100.00
9521;BME280;4798;41.574;23.734;2023-05-08T00:35:01;95594.06;;;15.61;100.00
9521;BME280;4798;41.574;23.734;2023-05-08T00:37:29;95593.69;;;15.67;100.00
9521;BME280;4798;41.574;23.734;2023-05-08T00:39:57;95589.75;;;15.46;100.00
9521;BME280;4798;41.574;23.734;2023-05-08T00:42:27;95592.69;;;15.63;100.00
9521;BME280;4798;41.574;23.734;2023-05-08T00:44:55;95587.44;;;15.72;100.00
9521;BME280;4798;41.574;23.734;2023-05-08T00:47:23;95589.13;;;15.81;100.00
9521;BME280;4798;41.574;23.734;2023-05-08T00:49:52;95584.31;;;15.83;100.00
9521;BME280;4798;41.574;23.734;2023-05-08T00:52:21;95597.09;;;16.00;98.79
9521;BME280;4798;41.574;23.734;2023-05-08T00:54:49;95598.56;;;15.93;98.28
9521;BME280;4798;41.574;23.734;2023-05-08T00:57:18;95596.03;;;15.69;100.00
9521;BME280;4798;41.574;23.734;2023-05-08T00:59:48;95593.91;;;15.20;100.00
9521;BME280;4798;41.574;23.734;2023-05-08T01:02:17;95599.50;;;15.56;100.00
9521;BME280;4798;41.574;23.734;2023-05-08T01:04:47;95584.69;;;15.45;100.00
9521;BME280;4798;41.574;23.734;2023-05-08T01:07:16;95601.09;;;14.87;100.00
9521;BME280;4798;41.574;23.734;2023-05-08T01:09:44;95595.13;;;14.53;100.00
9521;BME280;4798;41.574;23.734;2023-05-08T01:12:17;95604.13;;;14.38;100.00
9521;BME280;4798;41.574;23.734;2023-05-08T01:14:58;95597.56;;;14.31;100.00
9521;BME280;4798;41.574;23.734;2023-05-08T01:17:38;95590.84;;;14.57;100.00
9521;BME280;4798;41.574;23.734;2023-05-08T01:20:21;95600.41;;;14.95;100.00
9521;BME280;4798;41.574;23.734;2023-05-08T01:26:21;95589.19;;;15.31;100.00
9521;BME280;4798;41.574;23.734;2023-05-08T01:29:09;95584.84;;;15.35;100.00
9521;BME280;4798;41.574;23.734;2023-05-08T01:34:50;95591.59;;;15.13;100.00
9521;BME280;4798;41.574;23.734;2023-05-08T01:37:29;95584.38;;;15.14;100.00
9521;BME280;4798;41.574;23.734;2023-05-08T01:40:06;95587.44;;;14.70;100.00
9521;BME280;4798;41.574;23.734;2023-05-08T01:42:47;95587.97;;;14.72;100.00
9521;BME280;4798;41.574;23.734;2023-05-08T01:45:20;95585.75;;;14.93;100.00
9521;BME280;4798;41.574;23.734;2023-05-08T01:47:53;95589.31;;;14.88;100.00
9521;BME280;4798;41.574;23.734;2023-05-08T01:50:34;95585.25;;;15.09;100.00
9521;BME280;4798;41.574;23.734;2023-05-08T01:53:08;95586.97;;;15.19;100.00
9521;BME280;4798;41.574;23.734;2023-05-08T01:55:38;95576.94;;;15.11;100.00
9521;BME280;4798;41.574;23.734;2023-05-08T01:58:08;95529.19;;;14.77;100.00
9521;BME280;4798;41.574;23.734;2023-05-08T02:00:38;95583.09;;;15.11;100.00
9521;BME280;4798;41.574;23.734;2023-05-08T02:03:08;95530.47;;;14.80;100.00
9521;BME280;4798;41.574;23.734;2023-05-08T02:05:40;95580.34;;;14.98;100.00
9521;BME280;4798;41.574;23.734;2023-05-08T02:08:11;95589.47;;;14.97;100.00
9521;BME280;4798;41.574;23.734;2023-05-08T02:10:41;95578.56;;;14.93;100.00
9521;BME280;4798;41.574;23.734;2023-05-08T02:13:12;95583.53;;;15.00;100.00
9521;BME280;4798;41.574;23.734;2023-05-08T02:15:46;95589.88;;;14.85;100.00
9521;BME280;4798;41.574;23.734;2023-05-08T02:18:17;95587.66;;;14.92;100.00
9521;BME280;4798;41.574;23.734;2023-05-08T02:20:50;95569.78;;;14.74;100.00
9521;BME280;4798;41.574;23.734;2023-05-08T02:23:19;95577.06;;;14.69;100.00
9521;BME280;4798;41.574;23.734;2023-05-08T02:25:49;95582.41;;;14.87;100.00
9521;BME280;4798;41.574;23.734;2023-05-08T02:28:19;95580.66;;;14.78;100.00
9521;BME280;4798;41.574;23.734;2023-05-08T02:30:50;95585.84;;;14.88;100.00
9521;BME280;4798;41.574;23.734;2023-05-08T02:33:20;95588.88;;;14.81;100.00
9521;BME280;4798;41.574;23.734;2023-05-08T02:35:50;95580.81;;;14.86;100.00
9521;BME280;4798;41.574;23.734;2023-05-08T02:38:22;95575.38;;;14.73;100.00
9521;BME280;4798;41.574;23.734;2023-05-08T02:40:54;95580.53;;;14.69;100.00
9521;BME280;4798;41.574;23.734;2023-05-08T02:43:24;95584.75;;;14.70;100.00
9521;BME280;4798;41.574;23.734;2023-05-08T02:45:59;95553.63;;;14.47;100.00
9521;BME280;4798;41.574;23.734;2023-05-08T02:48:33;95586.66;;;14.70;100.00
9521;BME280;4798;41.574;23.734;2023-05-08T02:51:13;95583.69;;;14.71;100.00
9521;BME280;4798;41.574;23.734;2023-05-08T02:53:48;95580.09;;;14.62;100.00
9521;BME280;4798;41.574;23.734;2023-05-08T02:56:27;95572.66;;;14.59;100.00
9521;BME280;4798;41.574;23.734;2023-05-08T02:59:03;95539.41;;;14.33;100.00
9521;BME280;4798;41.574;23.734;2023-05-08T03:01:41;95581.03;;;14.71;100.00
9521;BME280;4798;41.574;23.734;2023-05-08T03:04:18;95580.44;;;14.55;100.00
9521;BME280;4798;41.574;23.734;2023-05-08T03:06:49;95584.72;;;14.09;100.00
9521;BME280;4798;41.574;23.734;2023-05-08T03:09:20;95587.09;;;14.11;100.00
9521;BME280;4798;41.574;23.734;2023-05-08T03:11:59;95589.25;;;14.32;100.00
9521;BME280;4798;41.574;23.734;2023-05-08T03:14:31;95570.00;;;14.12;100.00
9521;BME280;4798;41.574;23.734;2023-05-08T03:17:05;95592.63;;;14.14;100.00
9521;BME280;4798;41.574;23.734;2023-05-08T03:19:36;95600.25;;;14.26;100.00
9521;BME280;4798;41.574;23.734;2023-05-08T03:22:09;95589.72;;;14.39;100.00
9521;BME280;4798;41.574;23.734;2023-05-08T03:24:39;95596.38;;;14.42;100.00
9521;BME280;4798;41.574;23.734;2023-05-08T03:27:10;95583.47;;;14.49;100.00
9521;BME280;4798;41.574;23.734;2023-05-08T03:29:39;95595.69;;;14.50;100.00
9521;BME280;4798;41.574;23.734;2023-05-08T03:32:10;95598.09;;;14.51;100.00
9521;BME280;4798;41.574;23.734;2023-05-08T03:34:39;95594.88;;;14.54;100.00
9521;BME280;4798;41.574;23.734;2023-05-08T03:37:09;95602.34;;;14.52;100.00
9521;BME280;4798;41.574;23.734;2023-05-08T03:39:38;95592.84;;;14.46;100.00
9521;BME280;4798;41.574;23.734;2023-05-08T03:42:06;95611.78;;;14.21;100.00
9521;BME280;4798;41.574;23.734;2023-05-08T03:44:35;95602.06;;;13.54;100.00
9521;BME280;4798;41.574;23.734;2023-05-08T03:47:05;95616.97;;;13.55;100.00
9521;BME280;4798;41.574;23.734;2023-05-08T03:49:34;95616.69;;;13.28;100.00
9521;BME280;4798;41.574;23.734;2023-05-08T03:52:04;95616.78;;;13.75;100.00
9521;BME280;4798;41.574;23.734;2023-05-08T03:54:34;95623.31;;;13.88;100.00
9521;BME280;4798;41.574;23.734;2023-05-08T03:57:03;95602.84;;;13.26;100.00
9521;BME280;4798;41.574;23.734;2023-05-08T03:59:41;95620.44;;;13.56;100.00
9521;BME280;4798;41.574;23.734;2023-05-08T04:02:16;95617.50;;;14.10;100.00
9521;BME280;4798;41.574;23.734;2023-05-08T04:04:51;95607.50;;;13.96;100.00
9521;BME280;4798;41.574;23.734;2023-05-08T04:07:26;95612.72;;;14.07;100.00
9521;BME280;4798;41.574;23.734;2023-05-08T04:09:58;95589.31;;;14.04;100.00
9521;BME280;4798;41.574;23.734;2023-05-08T04:12:35;95611.41;;;14.28;100.00
9521;BME280;4798;41.574;23.734;2023-05-08T04:15:08;95613.75;;;14.58;100.00
9521;BME280;4798;41.574;23.734;2023-05-08T04:17:41;95611.28;;;14.80;100.00
9521;BME280;4798;41.574;23.734;2023-05-08T04:20:16;95602.66;;;14.88;100.00
9521;BME280;4798;41.574;23.734;2023-05-08T04:22:47;95615.28;;;15.01;100.00
9521;BME280;4798;41.574;23.734;2023-05-08T04:25:19;95598.19;;;15.02;100.00
9521;BME280;4798;41.574;23.734;2023-05-08T04:27:48;95619.50;;;15.21;100.00
9521;BME280;4798;41.574;23.734;2023-05-08T04:30:19;95622.56;;;15.14;100.00
9521;BME280;4798;41.574;23.734;2023-05-08T04:32:48;95615.63;;;15.32;100.00
9521;BME280;4798;41.574;23.734;2023-05-08T04:35:17;95623.13;;;15.11;100.00
9521;BME280;4798;41.574;23.734;2023-05-08T04:37:46;95620.38;;;15.16;100.00
9521;BME280;4798;41.574;23.734;2023-05-08T04:40:14;95616.72;;;14.94;100.00
9521;BME280;4798;41.574;23.734;2023-05-08T04:42:44;95627.03;;;15.00;100.00
9521;BME280;4798;41.574;23.734;2023-05-08T04:45:13;95628.31;;;15.21;100.00
9521;BME280;4798;41.574;23.734;2023-05-08T04:47:42;95620.38;;;15.35;100.00
9521;BME280;4798;41.574;23.734;2023-05-08T04:50:10;95621.38;;;15.58;100.00
9521;BME280;4798;41.574;23.734;2023-05-08T04:52:39;95625.34;;;15.74;100.00
9521;BME280;4798;41.574;23.734;2023-05-08T04:55:08;95626.56;;;15.81;100.00
9521;BME280;4798;41.574;23.734;2023-05-08T04:57:37;95561.47;;;14.94;100.00
9521;BME280;4798;41.574;23.734;2023-05-08T05:00:08;95623.06;;;15.35;100.00
9521;BME280;4798;41.574;23.734;2023-05-08T05:02:36;95614.66;;;15.60;100.00
9521;BME280;4798;41.574;23.734;2023-05-08T05:05:06;95576.75;;;14.89;100.00
9521;BME280;4798;41.574;23.734;2023-05-08T05:07:34;95498.16;;;14.25;100.00
9521;BME280;4798;41.574;23.734;2023-05-08T05:10:03;95613.38;;;15.20;100.00
9521;BME280;4798;41.574;23.734;2023-05-08T05:12:33;95551.75;;;14.85;100.00
9521;BME280;4798;41.574;23.734;2023-05-08T05:15:02;95616.59;;;15.55;100.00
9521;BME280;4798;41.574;23.734;2023-05-08T05:17:31;95571.28;;;15.50;100.00
9521;BME280;4798;41.574;23.734;2023-05-08T05:20:01;95614.16;;;15.40;100.00
9521;BME280;4798;41.574;23.734;2023-05-08T05:22:31;95606.31;;;15.30;100.00
9521;BME280;4798;41.574;23.734;2023-05-08T05:24:59;95611.41;;;15.26;100.00
9521;BME280;4798;41.574;23.734;2023-05-08T05:27:28;95605.69;;;15.51;100.00
9521;BME280;4798;41.574;23.734;2023-05-08T05:29:57;95612.47;;;15.11;100.00
9521;BME280;4798;41.574;23.734;2023-05-08T05:32:25;95606.97;;;15.21;100.00
9521;BME280;4798;41.574;23.734;2023-05-08T05:34:55;95609.59;;;15.59;100.00
9521;BME280;4798;41.574;23.734;2023-05-08T05:37:24;95607.72;;;16.19;100.00
9521;BME280;4798;41.574;23.734;2023-05-08T05:39:52;95597.78;;;16.19;100.00
9521;BME280;4798;41.574;23.734;2023-05-08T05:42:20;95600.38;;;16.11;100.00
9521;BME280;4798;41.574;23.734;2023-05-08T05:44:49;95590.34;;;15.89;100.00
9521;BME280;4798;41.574;23.734;2023-05-08T05:47:17;95602.25;;;16.24;100.00
9521;BME280;4798;41.574;23.734;2023-05-08T05:49:45;95594.31;;;16.60;100.00
9521;BME280;4798;41.574;23.734;2023-05-08T05:52:15;95595.50;;;17.03;94.60
9521;BME280;4798;41.574;23.734;2023-05-08T05:54:44;95590.91;;;17.17;94.51
9521;BME280;4798;41.574;23.734;2023-05-08T05:57:12;95581.53;;;17.72;92.09
9521;BME280;4798;41.574;23.734;2023-05-08T05:59:43;95586.56;;;18.05;87.36
9521;BME280;4798;41.574;23.734;2023-05-08T06:02:11;95586.50;;;17.88;85.35
9521;BME280;4798;41.574;23.734;2023-05-08T06:04:44;95575.19;;;18.47;84.51
9521;BME280;4798;41.574;23.734;2023-05-08T06:07:14;95574.16;;;18.82;81.15
9521;BME280;4798;41.574;23.734;2023-05-08T06:09:42;95569.66;;;17.96;82.43
9521;BME280;4798;41.574;23.734;2023-05-08T06:12:11;95564.66;;;18.11;82.54
9521;BME280;4798;41.574;23.734;2023-05-08T06:14:39;95576.69;;;18.70;81.53
9521;BME280;4798;41.574;23.734;2023-05-08T06:17:07;95574.00;;;18.14;82.74
9521;BME280;4798;41.574;23.734;2023-05-08T06:19:36;95573.50;;;18.60;80.93
9521;BME280;4798;41.574;23.734;2023-05-08T06:22:04;95566.59;;;19.19;80.03
9521;BME280;4798;41.574;23.734;2023-05-08T06:24:34;95566.59;;;19.19;78.73
9521;BME280;4798;41.574;23.734;2023-05-08T06:27:02;95565.00;;;19.26;78.33
9521;BME280;4798;41.574;23.734;2023-05-08T06:29:31;95552.19;;;19.32;74.64
9521;BME280;4798;41.574;23.734;2023-05-08T06:31:59;95553.56;;;19.81;72.81
9521;BME280;4798;41.574;23.734;2023-05-08T06:34:28;95558.81;;;20.06;72.99
9521;BME280;4798;41.574;23.734;2023-05-08T06:36:57;95553.50;;;19.89;71.67
9521;BME280;4798;41.574;23.734;2023-05-08T06:39:25;95553.78;;;20.05;72.23
9521;BME280;4798;41.574;23.734;2023-05-08T06:41:55;95552.41;;;20.57;71.57
9521;BME280;4798;41.574;23.734;2023-05-08T06:44:23;95530.78;;;20.16;71.13
9521;BME280;4798;41.574;23.734;2023-05-08T06:46:52;95507.59;;;20.32;69.85
9521;BME280;4798;41.574;23.734;2023-05-08T06:49:21;95544.34;;;21.07;69.14
9521;BME280;4798;41.574;23.734;2023-05-08T06:51:50;95533.78;;;20.94;67.39
9521;BME280;4798;41.574;23.734;2023-05-08T06:54:18;95541.53;;;20.95;66.51
9521;BME280;4798;41.574;23.734;2023-05-08T06:56:46;95529.47;;;21.99;66.04
9521;BME280;4798;41.574;23.734;2023-05-08T06:59:16;95526.09;;;21.90;64.98
9521;BME280;4798;41.574;23.734;2023-05-08T07:01:44;95494.28;;;21.63;65.42
9521;BME280;4798;41.574;23.734;2023-05-08T07:04:13;95523.91;;;21.84;64.92
9521;BME280;4798;41.574;23.734;2023-05-08T07:06:41;95521.47;;;22.27;63.04
9521;BME280;4798;41.574;23.734;2023-05-08T07:09:09;95516.03;;;22.88;61.92
9521;BME280;4798;41.574;23.734;2023-05-08T07:11:38;95484.19;;;22.81;61.58
9521;BME280;4798;41.574;23.734;2023-05-08T07:14:07;95451.47;;;22.98;58.75
9521;BME280;4798;41.574;23.734;2023-05-08T07:16:36;95514.31;;;23.23;57.66
9521;BME280;4798;41.574;23.734;2023-05-08T07:19:05;95510.81;;;23.78;58.37
9521;BME280;4798;41.574;23.734;2023-05-08T07:21:33;95521.78;;;24.28;57.47
9521;BME280;4798;41.574;23.734;2023-05-08T07:24:02;95515.72;;;24.35;54.62
9521;BME280;4798;41.574;23.734;2023-05-08T07:26:30;95486.50;;;24.44;53.49
9521;BME280;4798;41.574;23.734;2023-05-08T07:28:58;95504.78;;;23.84;54.28
9521;BME280;4798;41.574;23.734;2023-05-08T07:31:28;95497.41;;;24.79;53.34
9521;BME280;4798;41.574;23.734;2023-05-08T07:33:58;95495.94;;;24.50;53.41
9521;BME280;4798;41.574;23.734;2023-05-08T07:36:26;95498.56;;;24.97;52.00
9521;BME280;4798;41.574;23.734;2023-05-08T07:38:55;95499.47;;;24.85;52.62
9521;BME280;4798;41.574;23.734;2023-05-08T07:41:23;95497.38;;;25.74;50.66
9521;BME280;4798;41.574;23.734;2023-05-08T07:43:52;95494.88;;;25.66;48.99
9521;BME280;4798;41.574;23.734;2023-05-08T07:46:20;95496.38;;;25.86;48.98
9521;BME280;4798;41.574;23.734;2023-05-08T07:48:49;95458.94;;;25.95;49.51
9521;BME280;4798;41.574;23.734;2023-05-08T07:51:19;95490.81;;;26.47;49.30
9521;BME280;4798;41.574;23.734;2023-05-08T07:53:47;95482.38;;;26.82;48.77
9521;BME280;4798;41.574;23.734;2023-05-08T07:56:17;95484.09;;;26.67;46.89
9521;BME280;4798;41.574;23.734;2023-05-08T07:58:45;95440.91;;;25.42;46.72
9521;BME280;4798;41.574;23.734;2023-05-08T08:01:13;95469.00;;;26.17;47.52
9521;BME280;4798;41.574;23.734;2023-05-08T08:03:44;95475.88;;;25.88;46.38
9521;BME280;4798;41.574;23.734;2023-05-08T08:06:13;95473.06;;;26.57;45.20
9521;BME280;4798;41.574;23.734;2023-05-08T08:08:42;95484.97;;;26.45;45.09
9521;BME280;4798;41.574;23.734;2023-05-08T08:11:11;95441.72;;;26.36;45.54
9521;BME280;4798;41.574;23.734;2023-05-08T08:13:39;95469.91;;;26.02;45.30
9521;BME280;4798;41.574;23.734;2023-05-08T08:16:07;95463.47;;;26.36;45.86
9521;BME280;4798;41.574;23.734;2023-05-08T08:18:36;95460.50;;;26.75;45.10
9521;BME280;4798;41.574;23.734;2023-05-08T08:21:05;95449.56;;;27.64;44.38
9521;BME280;4798;41.574;23.734;2023-05-08T08:23:33;95451.38;;;28.44;43.62
9521;BME280;4798;41.574;23.734;2023-05-08T08:26:03;95419.22;;;27.65;43.67
9521;BME280;4798;41.574;23.734;2023-05-08T08:28:31;95438.41;;;28.88;42.23
9521;BME280;4798;41.574;23.734;2023-05-08T08:31:00;95450.16;;;28.96;41.13
9521;BME280;4798;41.574;23.734;2023-05-08T08:33:28;95443.47;;;28.25;41.56
9521;BME280;4798;41.574;23.734;2023-05-08T08:35:57;95434.81;;;28.16;41.44
9521;BME280;4798;41.574;23.734;2023-05-08T08:38:25;95424.41;;;27.78;42.66
9521;BME280;4798;41.574;23.734;2023-05-08T08:40:53;95399.78;;;28.79;41.49
9521;BME280;4798;41.574;23.734;2023-05-08T08:43:23;95408.88;;;29.12;41.45
9521;BME280;4798;41.574;23.734;2023-05-08T08:45:52;95380.91;;;29.53;40.29
9521;BME280;4798;41.574;23.734;2023-05-08T08:48:24;95414.50;;;29.75;41.13
9521;BME280;4798;41.574;23.734;2023-05-08T08:50:58;95402.63;;;29.08;42.20
9521;BME280;4798;41.574;23.734;2023-05-08T08:53:33;95419.44;;;28.45;42.04
9521;BME280;4798;41.574;23.734;2023-05-08T08:56:04;95419.78;;;26.48;44.65
9521;BME280;4798;41.574;23.734;2023-05-08T08:58:39;95416.72;;;26.01;45.84
9521;BME280;4798;41.574;23.734;2023-05-08T09:01:14;95336.19;;;25.41;46.99
9521;BME280;4798;41.574;23.734;2023-05-08T09:03:43;95390.97;;;27.03;44.88
9521;BME280;4798;41.574;23.734;2023-05-08T09:06:15;95397.22;;;27.85;45.07
9521;BME280;4798;41.574;23.734;2023-05-08T09:08:44;95390.91;;;27.00;44.64
9521;BME280;4798;41.574;23.734;2023-05-08T09:11:13;95383.91;;;26.99;44.32
9521;BME280;4798;41.574;23.734;2023-05-08T09:13:43;95385.69;;;26.02;45.21
9521;BME280;4798;41.574;23.734;2023-05-08T09:16:11;95376.72;;;26.24;46.27
9521;BME280;4798;41.574;23.734;2023-05-08T09:18:40;95379.41;;;25.72;45.29
9521;BME280;4798;41.574;23.734;2023-05-08T09:21:08;95373.94;;;25.46;47.28
9521;BME280;4798;41.574;23.734;2023-05-08T09:23:36;95379.91;;;25.36;47.92
9521;BME280;4798;41.574;23.734;2023-05-08T09:26:28;95371.75;;;25.55;46.35
9521;BME280;4798;41.574;23.734;2023-05-08T09:29:18;95361.19;;;25.99;46.18
9521;BME280;4798;41.574;23.734;2023-05-08T09:31:49;95357.97;;;25.90;45.97
9521;BME280;4798;41.574;23.734;2023-05-08T09:34:25;95357.53;;;25.88;45.80
9521;BME280;4798;41.574;23.734;2023-05-08T09:36:54;95354.81;;;27.40;43.78
9521;BME280;4798;41.574;23.734;2023-05-08T09:39:24;95351.47;;;28.11;43.34
9521;BME280;4798;41.574;23.734;2023-05-08T09:41:59;95344.38;;;28.00;43.03
9521;BME280;4798;41.574;23.734;2023-05-08T09:44:42;95352.09;;;27.91;42.46
9521;BME280;4798;41.574;23.734;2023-05-08T09:47:12;95343.09;;;26.99;42.73
9521;BME280;4798;41.574;23.734;2023-05-08T09:49:55;95346.56;;;26.07;44.38
9521;BME280;4798;41.574;23.734;2023-05-08T09:52:23;95339.47;;;26.25;45.11
9521;BME280;4798;41.574;23.734;2023-05-08T09:54:56;95294.72;;;26.15;46.20
9521;BME280;4798;41.574;23.734;2023-05-08T09:57:26;95342.44;;;25.90;46.22
9521;BME280;4798;41.574;23.734;2023-05-08T10:00:01;95338.69;;;25.72;45.07
9521;BME280;4798;41.574;23.734;2023-05-08T10:02:32;95330.91;;;25.48;46.34
9521;BME280;4798;41.574;23.734;2023-05-08T10:05:00;95325.91;;;25.04;46.54
9521;BME280;4798;41.574;23.734;2023-05-08T10:07:32;95330.84;;;24.99;46.80
9521;BME280;4798;41.574;23.734;2023-05-08T10:10:03;95330.78;;;24.76;46.84
9521;BME280;4798;41.574;23.734;2023-05-08T10:12:32;95329.22;;;24.56;47.88
9521;BME280;4798;41.574;23.734;2023-05-08T10:15:02;95316.47;;;24.56;47.72
9521;BME280;4798;41.574;23.734;2023-05-08T10:17:37;95325.41;;;24.03;46.08
9521;BME280;4798;41.574;23.734;2023-05-08T10:20:11;95312.63;;;24.03;46.33
9521;BME280;4798;41.574;23.734;2023-05-08T10:22:42;95301.31;;;23.32;47.21
9521;BME280;4798;41.574;23.734;2023-05-08T10:25:15;95318.06;;;23.53;47.41
9521;BME280;4798;41.574;23.734;2023-05-08T10:27:47;95307.00;;;23.93;45.83
9521;BME280;4798;41.574;23.734;2023-05-08T10:30:23;95297.56;;;23.52;46.95
9521;BME280;4798;41.574;23.734;2023-05-08T10:32:53;95300.81;;;23.42;46.91
9521;BME280;4798;41.574;23.734;2023-05-08T10:35:25;95281.75;;;23.54;49.58
9521;BME280;4798;41.574;23.734;2023-05-08T10:37:54;95280.84;;;24.00;48.83
9521;BME280;4798;41.574;23.734;2023-05-08T10:40:23;95268.19;;;24.24;49.18
9521;BME280;4798;41.574;23.734;2023-05-08T10:42:51;95278.22;;;25.03;47.91
9521;BME280;4798;41.574;23.734;2023-05-08T10:45:21;95278.28;;;25.30;46.67
9521;BME280;4798;41.574;23.734;2023-05-08T10:47:56;95268.78;;;26.55;43.41
9521;BME280;4798;41.574;23.734;2023-05-08T10:50:43;95270.78;;;25.98;43.67
9521;BME280;4798;41.574;23.734;2023-05-08T10:53:18;95266.00;;;25.88;43.53
9521;BME280;4798;41.574;23.734;2023-05-08T10:55:50;95262.06;;;26.78;41.48
9521;BME280;4798;41.574;23.734;2023-05-08T10:58:29;95252.06;;;26.89;40.18
9521;BME280;4798;41.574;23.734;2023-05-08T11:01:15;95247.13;;;28.11;40.17
9521;BME280;4798;41.574;23.734;2023-05-08T11:03:48;95243.91;;;27.91;38.16
9521;BME280;4798;41.574;23.734;2023-05-08T11:06:41;95238.66;;;28.23;38.13
9521;BME280;4798;41.574;23.734;2023-05-08T11:09:17;95229.50;;;29.47;36.84
9521;BME280;4798;41.574;23.734;2023-05-08T11:11:54;95226.59;;;30.29;35.40
9521;BME280;4798;41.574;23.734;2023-05-08T11:14:24;95220.03;;;30.88;35.52
9521;BME280;4798;41.574;23.734;2023-05-08T11:17:08;95218.00;;;30.30;34.70
9521;BME280;4798;41.574;23.734;2023-05-08T11:19:37;95154.94;;;29.79;36.39
9521;BME280;4798;41.574;23.734;2023-05-08T11:22:13;95214.66;;;29.87;36.20
9521;BME280;4798;41.574;23.734;2023-05-08T11:24:57;95183.09;;;29.47;36.36
9521;BME280;4798;41.574;23.734;2023-05-08T11:27:38;95212.28;;;28.62;38.23
9521;BME280;4798;41.574;23.734;2023-05-08T11:30:32;95206.41;;;27.63;39.33
9521;BME280;4798;41.574;23.734;2023-05-08T11:33:13;95195.97;;;29.15;38.52
9521;BME280;4798;41.574;23.734;2023-05-08T11:35:50;95209.59;;;29.65;36.84
9521;BME280;4798;41.574;23.734;2023-05-08T11:38:24;95199.09;;;29.03;36.26
9521;BME280;4798;41.574;23.734;2023-05-08T11:40:59;95198.31;;;28.88;36.97
9521;BME280;4798;41.574;23.734;2023-05-08T11:46:39;95241.63;;;28.00;38.81
9521;BME280;4798;41.574;23.734;2023-05-08T11:49:13;95186.38;;;27.35;39.77
9521;BME280;4798;41.574;23.734;2023-05-08T11:51:44;95256.69;;;26.85;41.89
9521;BME280;4798;41.574;23.734;2023-05-08T11:54:14;95265.72;;;25.70;43.53
9521;BME280;4798;41.574;23.734;2023-05-08T11:56:45;95301.34;;;25.65;44.46
9521;BME280;4798;41.574;23.734;2023-05-08T11:59:14;95253.47;;;24.63;48.30
9521;BME280;4798;41.574;23.734;2023-05-08T12:01:43;95297.66;;;23.90;53.85
9521;BME280;4798;41.574;23.734;2023-05-08T12:04:23;95316.38;;;22.58;57.53
9521;BME280;4798;41.574;23.734;2023-05-08T12:06:56;95340.00;;;22.34;60.43
9521;BME280;4798;41.574;23.734;2023-05-08T12:09:25;95354.22;;;21.10;62.55
9521;BME280;4798;41.574;23.734;2023-05-08T12:11:57;95358.44;;;20.66;67.05
9521;BME280;4798;41.574;23.734;2023-05-08T12:14:26;95339.19;;;21.21;67.09
9521;BME280;4798;41.574;23.734;2023-05-08T12:16:54;95324.69;;;21.25;69.27
9521;BME280;4798;41.574;23.734;2023-05-08T12:19:24;95337.94;;;21.79;73.95
9521;BME280;4798;41.574;23.734;2023-05-08T12:21:55;95339.06;;;21.53;73.20
9521;BME280;4798;41.574;23.734;2023-05-08T12:24:24;95320.84;;;21.99;70.93
9521;BME280;4798;41.574;23.734;2023-05-08T12:26:53;95325.16;;;22.55;67.87
9521;BME280;4798;41.574;23.734;2023-05-08T12:29:22;95279.50;;;22.94;63.18
9521;BME280;4798;41.574;23.734;2023-05-08T12:31:54;95336.09;;;22.87;60.73
9521;BME280;4798;41.574;23.734;2023-05-08T12:34:24;95340.38;;;22.20;64.88
9521;BME280;4798;41.574;23.734;2023-05-08T12:37:02;95311.00;;;21.55;73.21
9521;BME280;4798;41.574;23.734;2023-05-08T12:39:34;95307.16;;;21.92;73.85
9521;BME280;4798;41.574;23.734;2023-05-08T12:42:03;95325.19;;;22.16;78.83
9521;BME280;4798;41.574;23.734;2023-05-08T12:44:32;95328.06;;;21.95;82.54
9521;BME280;4798;41.574;23.734;2023-05-08T12:47:04;95317.63;;;21.45;82.82
9521;BME280;4798;41.574;23.734;2023-05-08T12:49:34;95312.94;;;20.85;81.19
9521;BME280;4798;41.574;23.734;2023-05-08T12:52:06;95290.88;;;20.59;86.33
9521;BME280;4798;41.574;23.734;2023-05-08T12:54:37;95309.69;;;20.79;85.97
9521;BME280;4798;41.574;23.734;2023-05-08T12:57:10;95273.38;;;21.10;83.01
9521;BME280;4798;41.574;23.734;2023-05-08T12:59:39;95312.22;;;21.33;78.97
9521;BME280;4798;41.574;23.734;2023-05-08T13:02:12;95307.75;;;20.80;86.99
9521;BME280;4798;41.574;23.734;2023-05-08T13:04:43;95315.22;;;20.30;97.02
9521;BME280;4798;41.574;23.734;2023-05-08T13:07:11;95312.28;;;20.55;98.81
9521;BME280;4798;41.574;23.734;2023-05-08T13:09:54;95310.16;;;20.94;94.84
9521;BME280;4798;41.574;23.734;2023-05-08T13:12:23;95256.66;;;20.26;96.19
9521;BME280;4798;41.574;23.734;2023-05-08T13:14:52;95296.75;;;20.73;92.03
9521;BME280;4798;41.574;23.734;2023-05-08T13:17:20;95301.16;;;20.45;82.84
9521;BME280;4798;41.574;23.734;2023-05-08T13:19:50;95312.66;;;20.66;78.38
9521;BME280;4798;41.574;23.734;2023-05-08T13:22:18;95310.72;;;20.87;78.04
9521;BME280;4798;41.574;23.734;2023-05-08T13:24:49;95257.94;;;20.86;75.18
9521;BME280;4798;41.574;23.734;2023-05-08T13:27:17;95301.34;;;21.17;77.02
9521;BME280;4798;41.574;23.734;2023-05-08T13:29:45;95302.56;;;21.56;73.21
9521;BME280;4798;41.574;23.734;2023-05-08T13:32:14;95307.47;;;21.78;71.55
9521;BME280;4798;41.574;23.734;2023-05-08T13:34:42;95301.78;;;21.19;76.30
9521;BME280;4798;41.574;23.734;2023-05-08T13:37:18;95302.66;;;21.35;81.15